sensor_id;sensor_type;location;lat;lon;timestamp;P1;durP1;ratioP1;P2;durP2;ratioP2
15354;SDS011;7777;52.254;9.618;2024-01-30T00:02:10;13.07;;;8.30;;
15354;SDS011;7777;52.254;9.618;2024-01-30T00:04:35;14.53;;;8.70;;
15354;SDS011;7777;52.254;9.618;2024-01-30T00:07:01;14.50;;;8.43;;
15354;SDS011;7777;52.254;9.618;2024-01-30T00:09:28;12.10;;;7.90;;
15354;SDS011;7777;52.254;9.618;2024-01-30T00:11:54;11.70;;;8.70;;
15354;SDS011;7777;52.254;9.618;2024-01-30T00:14:19;12.17;;;8.80;;
15354;SDS011;7777;52.254;9.618;2024-01-30T00:16:45;13.53;;;8.37;;
15354;SDS011;7777;52.254;9.618;2024-01-30T00:19:11;14.57;;;8.33;;
15354;SDS011;7777;52.254;9.618;2024-01-30T00:21:36;11.80;;;8.10;;
15354;SDS011;7777;52.254;9.618;2024-01-30T00:24:03;14.20;;;9.13;;
15354;SDS011;7777;52.254;9.618;2024-01-30T00:26:29;12.20;;;8.07;;
15354;SDS011;7777;52.254;9.618;2024-01-30T00:28:54;11.37;;;8.67;;
15354;SDS011;7777;52.254;9.618;2024-01-30T00:31:20;13.23;;;8.53;;
15354;SDS011;7777;52.254;9.618;2024-01-30T00:33:46;14.90;;;8.73;;
15354;SDS011;7777;52.254;9.618;2024-01-30T00:36:11;13.53;;;9.80;;
15354;SDS011;7777;52.254;9.618;2024-01-30T00:38:37;11.83;;;8.67;;
15354;SDS011;7777;52.254;9.618;2024-01-30T00:41:03;13.43;;;8.53;;
15354;SDS011;7777;52.254;9.618;2024-01-30T00:43:29;15.00;;;9.87;;
15354;SDS011;7777;52.254;9.618;2024-01-30T00:45:56;13.37;;;9.00;;
15354;SDS011;7777;52.254;9.618;2024-01-30T00:48:23;9.70;;;8.27;;
15354;SDS011;7777;52.254;9.618;2024-01-30T00:50:49;15.33;;;9.77;;
15354;SDS011;7777;52.254;9.618;2024-01-30T00:53:14;14.47;;;10.07;;
15354;SDS011;7777;52.254;9.618;2024-01-30T00:55:40;15.43;;;9.00;;
15354;SDS011;7777;52.254;9.618;2024-01-30T00:58:06;15.40;;;9.97;;
15354;SDS011;7777;52.254;9.618;2024-01-30T01:00:32;20.03;;;10.03;;
15354;SDS011;7777;52.254;9.618;2024-01-30T01:02:58;15.70;;;9.60;;
15354;SDS011;7777;52.254;9.618;2024-01-30T01:05:24;12.77;;;9.73;;
15354;SDS011;7777;52.254;9.618;2024-01-30T01:07:50;16.50;;;9.77;;
15354;SDS011;7777;52.254;9.618;2024-01-30T01:10:16;12.27;;;8.90;;
15354;SDS011;7777;52.254;9.618;2024-01-30T01:12:43;14.93;;;9.07;;
15354;SDS011;7777;52.254;9.618;2024-01-30T01:15:09;14.30;;;8.63;;
15354;SDS011;7777;52.254;9.618;2024-01-30T01:17:35;10.77;;;8.73;;
15354;SDS011;7777;52.254;9.618;2024-01-30T01:20:02;16.07;;;10.50;;
15354;SDS011;7777;52.254;9.618;2024-01-30T01:22:30;15.13;;;9.37;;
15354;SDS011;7777;52.254;9.618;2024-01-30T01:24:56;14.33;;;9.07;;
15354;SDS011;7777;52.254;9.618;2024-01-30T01:27:21;15.50;;;9.73;;
15354;SDS011;7777;52.254;9.618;2024-01-30T01:29:47;14.50;;;8.37;;
15354;SDS011;7777;52.254;9.618;2024-01-30T01:32:13;12.13;;;8.23;;
15354;SDS011;7777;52.254;9.618;2024-01-30T01:34:39;15.70;;;8.90;;
15354;SDS011;7777;52.254;9.618;2024-01-30T01:37:05;13.57;;;8.33;;
15354;SDS011;7777;52.254;9.618;2024-01-30T01:39:30;13.43;;;8.83;;
15354;SDS011;7777;52.254;9.618;2024-01-30T01:41:56;13.57;;;9.03;;
15354;SDS011;7777;52.254;9.618;2024-01-30T01:44:22;12.30;;;9.10;;
15354;SDS011;7777;52.254;9.618;2024-01-30T01:46:47;17.87;;;8.63;;
15354;SDS011;7777;52.254;9.618;2024-01-30T01:49:14;12.80;;;8.53;;
15354;SDS011;7777;52.254;9.618;2024-01-30T01:51:41;11.53;;;8.37;;
15354;SDS011;7777;52.254;9.618;2024-01-30T01:54:09;13.77;;;9.20;;
15354;SDS011;7777;52.254;9.618;2024-01-30T01:56:36;13.27;;;8.70;;
15354;SDS011;7777;52.254;9.618;2024-01-30T01:59:04;12.67;;;8.97;;
15354;SDS011;7777;52.254;9.618;2024-01-30T02:01:37;13.33;;;8.53;;
15354;SDS011;7777;52.254;9.618;2024-01-30T02:04:06;12.33;;;9.07;;
15354;SDS011;7777;52.254;9.618;2024-01-30T02:06:34;10.60;;;8.57;;
15354;SDS011;7777;52.254;9.618;2024-01-30T02:09:00;14.33;;;9.00;;
15354;SDS011;7777;52.254;9.618;2024-01-30T02:11:26;15.73;;;9.53;;
15354;SDS011;7777;52.254;9.618;2024-01-30T02:13:53;15.33;;;9.23;;
15354;SDS011;7777;52.254;9.618;2024-01-30T02:16:18;14.13;;;9.63;;
15354;SDS011;7777;52.254;9.618;2024-01-30T02:18:46;12.37;;;8.63;;
15354;SDS011;7777;52.254;9.618;2024-01-30T02:21:14;11.13;;;8.73;;
15354;SDS011;7777;52.254;9.618;2024-01-30T02:23:43;13.63;;;9.57;;
15354;SDS011;7777;52.254;9.618;2024-01-30T02:26:11;14.10;;;8.90;;
15354;SDS011;7777;52.254;9.618;2024-01-30T02:28:37;14.57;;;8.73;;
15354;SDS011;7777;52.254;9.618;2024-01-30T02:31:04;12.00;;;8.77;;
15354;SDS011;7777;52.254;9.618;2024-01-30T02:33:30;15.33;;;9.83;;
15354;SDS011;7777;52.254;9.618;2024-01-30T02:35:56;14.93;;;9.37;;
15354;SDS011;7777;52.254;9.618;2024-01-30T02:38:22;11.47;;;8.57;;
15354;SDS011;7777;52.254;9.618;2024-01-30T02:40:51;15.27;;;8.70;;
15354;SDS011;7777;52.254;9.618;2024-01-30T02:43:17;12.67;;;8.57;;
15354;SDS011;7777;52.254;9.618;2024-01-30T02:45:43;10.87;;;8.30;;
15354;SDS011;7777;52.254;9.618;2024-01-30T02:48:09;11.93;;;8.80;;
15354;SDS011;7777;52.254;9.618;2024-01-30T02:50:34;14.60;;;9.93;;
15354;SDS011;7777;52.254;9.618;2024-01-30T02:53:00;11.53;;;8.87;;
15354;SDS011;7777;52.254;9.618;2024-01-30T02:55:26;20.73;;;9.50;;
15354;SDS011;7777;52.254;9.618;2024-01-30T02:57:52;15.43;;;10.83;;
15354;SDS011;7777;52.254;9.618;2024-01-30T03:00:18;12.83;;;10.13;;
15354;SDS011;7777;52.254;9.618;2024-01-30T03:02:44;15.13;;;10.07;;
15354;SDS011;7777;52.254;9.618;2024-01-30T03:05:10;12.53;;;8.90;;
15354;SDS011;7777;52.254;9.618;2024-01-30T03:07:36;14.70;;;9.83;;
15354;SDS011;7777;52.254;9.618;2024-01-30T03:10:04;15.93;;;9.50;;
15354;SDS011;7777;52.254;9.618;2024-01-30T03:12:31;12.53;;;9.50;;
15354;SDS011;7777;52.254;9.618;2024-01-30T03:14:57;13.17;;;9.40;;
15354;SDS011;7777;52.254;9.618;2024-01-30T03:17:23;11.93;;;8.83;;
15354;SDS011;7777;52.254;9.618;2024-01-30T03:19:49;14.10;;;9.17;;
15354;SDS011;7777;52.254;9.618;2024-01-30T03:22:15;14.57;;;9.03;;
15354;SDS011;7777;52.254;9.618;2024-01-30T03:24:42;10.07;;;8.30;;
15354;SDS011;7777;52.254;9.618;2024-01-30T03:27:08;12.63;;;8.87;;
15354;SDS011;7777;52.254;9.618;2024-01-30T03:29:34;12.80;;;8.60;;
15354;SDS011;7777;52.254;9.618;2024-01-30T03:31:59;13.43;;;8.73;;
15354;SDS011;7777;52.254;9.618;2024-01-30T03:34:25;11.50;;;8.10;;
15354;SDS011;7777;52.254;9.618;2024-01-30T03:36:51;12.70;;;7.90;;
15354;SDS011;7777;52.254;9.618;2024-01-30T03:39:17;14.27;;;7.70;;
15354;SDS011;7777;52.254;9.618;2024-01-30T03:41:43;10.50;;;8.00;;
15354;SDS011;7777;52.254;9.618;2024-01-30T03:44:09;12.60;;;7.97;;
15354;SDS011;7777;52.254;9.618;2024-01-30T03:46:36;12.87;;;8.70;;
15354;SDS011;7777;52.254;9.618;2024-01-30T03:49:02;13.63;;;8.87;;
15354;SDS011;7777;52.254;9.618;2024-01-30T03:51:28;13.80;;;8.90;;
15354;SDS011;7777;52.254;9.618;2024-01-30T03:53:53;11.93;;;8.67;;
15354;SDS011;7777;52.254;9.618;2024-01-30T03:56:19;14.80;;;8.60;;
15354;SDS011;7777;52.254;9.618;2024-01-30T03:58:45;10.93;;;8.47;;
15354;SDS011;7777;52.254;9.618;2024-01-30T04:01:14;13.10;;;7.83;;
15354;SDS011;7777;52.254;9.618;2024-01-30T04:03:40;17.03;;;8.83;;
15354;SDS011;7777;52.254;9.618;2024-01-30T04:06:06;15.20;;;9.87;;
15354;SDS011;7777;52.254;9.618;2024-01-30T04:08:33;13.07;;;8.97;;
15354;SDS011;7777;52.254;9.618;2024-01-30T04:11:02;14.07;;;8.93;;
15354;SDS011;7777;52.254;9.618;2024-01-30T04:13:32;12.37;;;8.90;;
15354;SDS011;7777;52.254;9.618;2024-01-30T04:16:01;12.93;;;8.10;;
15354;SDS011;7777;52.254;9.618;2024-01-30T04:18:28;10.77;;;8.37;;
15354;SDS011;7777;52.254;9.618;2024-01-30T04:20:54;10.57;;;8.40;;
15354;SDS011;7777;52.254;9.618;2024-01-30T04:23:20;10.80;;;8.83;;
15354;SDS011;7777;52.254;9.618;2024-01-30T04:25:46;13.63;;;8.23;;
15354;SDS011;7777;52.254;9.618;2024-01-30T04:28:11;12.57;;;8.47;;
15354;SDS011;7777;52.254;9.618;2024-01-30T04:30:37;10.30;;;7.70;;
15354;SDS011;7777;52.254;9.618;2024-01-30T04:33:03;13.40;;;8.90;;
15354;SDS011;7777;52.254;9.618;2024-01-30T04:35:29;13.53;;;9.13;;
15354;SDS011;7777;52.254;9.618;2024-01-30T04:37:55;12.17;;;8.20;;
15354;SDS011;7777;52.254;9.618;2024-01-30T04:40:21;10.17;;;7.70;;
15354;SDS011;7777;52.254;9.618;2024-01-30T04:42:46;10.60;;;7.73;;
15354;SDS011;7777;52.254;9.618;2024-01-30T04:45:12;11.00;;;8.00;;
15354;SDS011;7777;52.254;9.618;2024-01-30T04:47:38;11.53;;;8.03;;
15354;SDS011;7777;52.254;9.618;2024-01-30T04:50:05;13.47;;;8.17;;
15354;SDS011;7777;52.254;9.618;2024-01-30T04:52:32;14.53;;;8.53;;
15354;SDS011;7777;52.254;9.618;2024-01-30T04:54:58;12.83;;;9.20;;
15354;SDS011;7777;52.254;9.618;2024-01-30T04:57:24;20.03;;;10.47;;
15354;SDS011;7777;52.254;9.618;2024-01-30T04:59:49;17.47;;;10.47;;
15354;SDS011;7777;52.254;9.618;2024-01-30T05:02:15;18.80;;;10.53;;
15354;SDS011;7777;52.254;9.618;2024-01-30T05:04:41;17.10;;;10.70;;
15354;SDS011;7777;52.254;9.618;2024-01-30T05:07:07;15.40;;;9.53;;
15354;SDS011;7777;52.254;9.618;2024-01-30T05:09:34;11.47;;;8.43;;
15354;SDS011;7777;52.254;9.618;2024-01-30T05:12:00;12.70;;;8.03;;
15354;SDS011;7777;52.254;9.618;2024-01-30T05:14:26;12.57;;;8.23;;
15354;SDS011;7777;52.254;9.618;2024-01-30T05:16:55;14.60;;;9.40;;
15354;SDS011;7777;52.254;9.618;2024-01-30T05:19:22;11.70;;;9.23;;
15354;SDS011;7777;52.254;9.618;2024-01-30T05:21:48;13.23;;;8.70;;
15354;SDS011;7777;52.254;9.618;2024-01-30T05:24:16;11.33;;;8.20;;
15354;SDS011;7777;52.254;9.618;2024-01-30T05:26:42;12.73;;;9.40;;
15354;SDS011;7777;52.254;9.618;2024-01-30T05:29:07;13.50;;;9.07;;
15354;SDS011;7777;52.254;9.618;2024-01-30T05:31:33;9.83;;;7.80;;
15354;SDS011;7777;52.254;9.618;2024-01-30T05:33:59;13.80;;;9.23;;
15354;SDS011;7777;52.254;9.618;2024-01-30T05:36:26;11.90;;;8.60;;
15354;SDS011;7777;52.254;9.618;2024-01-30T05:38:52;12.50;;;8.83;;
15354;SDS011;7777;52.254;9.618;2024-01-30T05:41:18;12.73;;;8.90;;
15354;SDS011;7777;52.254;9.618;2024-01-30T05:43:46;10.07;;;8.10;;
15354;SDS011;7777;52.254;9.618;2024-01-30T05:46:11;12.40;;;8.70;;
15354;SDS011;7777;52.254;9.618;2024-01-30T05:48:37;14.10;;;8.87;;
15354;SDS011;7777;52.254;9.618;2024-01-30T05:51:03;12.70;;;9.00;;
15354;SDS011;7777;52.254;9.618;2024-01-30T05:53:29;11.00;;;8.57;;
15354;SDS011;7777;52.254;9.618;2024-01-30T05:55:55;12.43;;;8.07;;
15354;SDS011;7777;52.254;9.618;2024-01-30T05:58:21;17.73;;;8.23;;
15354;SDS011;7777;52.254;9.618;2024-01-30T06:00:47;15.03;;;8.87;;
15354;SDS011;7777;52.254;9.618;2024-01-30T06:03:13;19.63;;;9.70;;
15354;SDS011;7777;52.254;9.618;2024-01-30T06:05:38;15.17;;;10.73;;
15354;SDS011;7777;52.254;9.618;2024-01-30T06:08:05;12.23;;;8.17;;
15354;SDS011;7777;52.254;9.618;2024-01-30T06:10:32;11.73;;;8.37;;
15354;SDS011;7777;52.254;9.618;2024-01-30T06:12:58;16.37;;;9.13;;
15354;SDS011;7777;52.254;9.618;2024-01-30T06:15:24;10.90;;;8.67;;
15354;SDS011;7777;52.254;9.618;2024-01-30T06:17:49;15.33;;;8.97;;
15354;SDS011;7777;52.254;9.618;2024-01-30T06:20:15;18.47;;;10.20;;
15354;SDS011;7777;52.254;9.618;2024-01-30T06:22:41;14.17;;;9.03;;
15354;SDS011;7777;52.254;9.618;2024-01-30T06:25:08;14.00;;;8.57;;
15354;SDS011;7777;52.254;9.618;2024-01-30T06:27:35;13.37;;;8.80;;
15354;SDS011;7777;52.254;9.618;2024-01-30T06:30:01;12.83;;;8.97;;
15354;SDS011;7777;52.254;9.618;2024-01-30T06:32:27;11.87;;;8.70;;
15354;SDS011;7777;52.254;9.618;2024-01-30T06:34:53;15.33;;;9.20;;
15354;SDS011;7777;52.254;9.618;2024-01-30T06:37:19;14.00;;;9.70;;
15354;SDS011;7777;52.254;9.618;2024-01-30T06:39:45;13.50;;;9.03;;
15354;SDS011;7777;52.254;9.618;2024-01-30T06:42:12;16.17;;;10.77;;
15354;SDS011;7777;52.254;9.618;2024-01-30T06:44:39;13.83;;;9.87;;
15354;SDS011;7777;52.254;9.618;2024-01-30T06:47:05;14.70;;;9.93;;
15354;SDS011;7777;52.254;9.618;2024-01-30T06:49:30;16.67;;;11.03;;
15354;SDS011;7777;52.254;9.618;2024-01-30T06:51:56;15.13;;;11.27;;
15354;SDS011;7777;52.254;9.618;2024-01-30T06:54:22;19.30;;;11.93;;
15354;SDS011;7777;52.254;9.618;2024-01-30T06:56:48;19.97;;;11.03;;
15354;SDS011;7777;52.254;9.618;2024-01-30T06:59:14;15.93;;;10.63;;
15354;SDS011;7777;52.254;9.618;2024-01-30T07:01:39;14.93;;;11.10;;
15354;SDS011;7777;52.254;9.618;2024-01-30T07:04:06;19.33;;;10.87;;
15354;SDS011;7777;52.254;9.618;2024-01-30T07:06:32;18.30;;;12.33;;
15354;SDS011;7777;52.254;9.618;2024-01-30T07:08:57;20.53;;;11.27;;
15354;SDS011;7777;52.254;9.618;2024-01-30T07:11:23;18.80;;;10.97;;
15354;SDS011;7777;52.254;9.618;2024-01-30T07:13:52;12.47;;;9.70;;
15354;SDS011;7777;52.254;9.618;2024-01-30T07:16:18;17.43;;;11.13;;
15354;SDS011;7777;52.254;9.618;2024-01-30T07:18:44;14.87;;;10.90;;
15354;SDS011;7777;52.254;9.618;2024-01-30T07:21:10;17.53;;;11.23;;
15354;SDS011;7777;52.254;9.618;2024-01-30T07:23:37;14.40;;;10.60;;
15354;SDS011;7777;52.254;9.618;2024-01-30T07:26:07;15.37;;;10.60;;
15354;SDS011;7777;52.254;9.618;2024-01-30T07:28:37;16.27;;;10.97;;
15354;SDS011;7777;52.254;9.618;2024-01-30T07:31:03;16.27;;;10.37;;
15354;SDS011;7777;52.254;9.618;2024-01-30T07:33:29;14.50;;;10.10;;
15354;SDS011;7777;52.254;9.618;2024-01-30T07:35:54;15.33;;;10.63;;
15354;SDS011;7777;52.254;9.618;2024-01-30T07:38:20;15.50;;;10.77;;
15354;SDS011;7777;52.254;9.618;2024-01-30T07:40:47;17.47;;;10.87;;
15354;SDS011;7777;52.254;9.618;2024-01-30T07:43:13;16.00;;;10.37;;
15354;SDS011;7777;52.254;9.618;2024-01-30T07:45:39;13.07;;;10.07;;
15354;SDS011;7777;52.254;9.618;2024-01-30T07:48:05;13.77;;;9.63;;
15354;SDS011;7777;52.254;9.618;2024-01-30T07:50:32;11.40;;;9.00;;
15354;SDS011;7777;52.254;9.618;2024-01-30T07:52:59;18.90;;;10.57;;
15354;SDS011;7777;52.254;9.618;2024-01-30T07:55:25;16.23;;;10.00;;
15354;SDS011;7777;52.254;9.618;2024-01-30T07:57:57;14.23;;;10.33;;
15354;SDS011;7777;52.254;9.618;2024-01-30T08:00:24;15.80;;;10.47;;
15354;SDS011;7777;52.254;9.618;2024-01-30T08:02:51;14.50;;;10.57;;
15354;SDS011;7777;52.254;9.618;2024-01-30T08:05:19;13.47;;;9.67;;
15354;SDS011;7777;52.254;9.618;2024-01-30T08:07:48;16.10;;;10.93;;
15354;SDS011;7777;52.254;9.618;2024-01-30T08:10:14;16.57;;;11.07;;
15354;SDS011;7777;52.254;9.618;2024-01-30T08:13:03;18.20;;;12.03;;
15354;SDS011;7777;52.254;9.618;2024-01-30T08:15:29;14.83;;;10.60;;
15354;SDS011;7777;52.254;9.618;2024-01-30T08:17:54;17.20;;;10.93;;
15354;SDS011;7777;52.254;9.618;2024-01-30T08:20:23;16.43;;;10.53;;
15354;SDS011;7777;52.254;9.618;2024-01-30T08:22:50;16.93;;;10.97;;
15354;SDS011;7777;52.254;9.618;2024-01-30T08:25:16;16.00;;;9.97;;
15354;SDS011;7777;52.254;9.618;2024-01-30T08:27:44;18.07;;;9.60;;
15354;SDS011;7777;52.254;9.618;2024-01-30T08:30:10;18.40;;;10.10;;
15354;SDS011;7777;52.254;9.618;2024-01-30T08:32:36;14.07;;;9.57;;
15354;SDS011;7777;52.254;9.618;2024-01-30T08:35:02;14.37;;;10.30;;
15354;SDS011;7777;52.254;9.618;2024-01-30T08:37:29;14.17;;;10.53;;
15354;SDS011;7777;52.254;9.618;2024-01-30T08:39:55;15.23;;;10.07;;
15354;SDS011;7777;52.254;9.618;2024-01-30T08:42:20;12.53;;;9.83;;
15354;SDS011;7777;52.254;9.618;2024-01-30T08:44:49;15.43;;;9.60;;
15354;SDS011;7777;52.254;9.618;2024-01-30T08:47:17;12.50;;;8.97;;
15354;SDS011;7777;52.254;9.618;2024-01-30T08:49:43;11.27;;;8.47;;
15354;SDS011;7777;52.254;9.618;2024-01-30T08:52:10;15.67;;;10.03;;
15354;SDS011;7777;52.254;9.618;2024-01-30T08:54:36;12.87;;;9.30;;
15354;SDS011;7777;52.254;9.618;2024-01-30T08:57:01;13.80;;;8.90;;
15354;SDS011;7777;52.254;9.618;2024-01-30T08:59:29;14.10;;;9.37;;
15354;SDS011;7777;52.254;9.618;2024-01-30T09:01:54;14.47;;;9.33;;
15354;SDS011;7777;52.254;9.618;2024-01-30T09:04:22;14.97;;;9.27;;
15354;SDS011;7777;52.254;9.618;2024-01-30T09:06:48;14.77;;;9.53;;
15354;SDS011;7777;52.254;9.618;2024-01-30T09:09:14;13.23;;;9.60;;
15354;SDS011;7777;52.254;9.618;2024-01-30T09:11:40;15.33;;;9.30;;
15354;SDS011;7777;52.254;9.618;2024-01-30T09:14:06;11.77;;;8.80;;
15354;SDS011;7777;52.254;9.618;2024-01-30T09:16:32;10.73;;;8.47;;
15354;SDS011;7777;52.254;9.618;2024-01-30T09:18:57;12.43;;;9.10;;
15354;SDS011;7777;52.254;9.618;2024-01-30T09:21:24;10.83;;;8.50;;
15354;SDS011;7777;52.254;9.618;2024-01-30T09:23:49;13.63;;;8.50;;
15354;SDS011;7777;52.254;9.618;2024-01-30T09:26:17;11.47;;;7.97;;
15354;SDS011;7777;52.254;9.618;2024-01-30T09:28:42;15.70;;;9.07;;
15354;SDS011;7777;52.254;9.618;2024-01-30T09:31:11;17.10;;;8.60;;
15354;SDS011;7777;52.254;9.618;2024-01-30T09:33:37;13.37;;;8.17;;
15354;SDS011;7777;52.254;9.618;2024-01-30T09:36:04;18.77;;;8.73;;
15354;SDS011;7777;52.254;9.618;2024-01-30T09:38:33;11.57;;;8.13;;
15354;SDS011;7777;52.254;9.618;2024-01-30T09:41:00;13.03;;;8.20;;
15354;SDS011;7777;52.254;9.618;2024-01-30T09:43:36;14.83;;;8.53;;
15354;SDS011;7777;52.254;9.618;2024-01-30T09:46:05;11.40;;;8.33;;
15354;SDS011;7777;52.254;9.618;2024-01-30T09:48:33;14.33;;;8.83;;
15354;SDS011;7777;52.254;9.618;2024-01-30T09:51:00;15.50;;;9.03;;
15354;SDS011;7777;52.254;9.618;2024-01-30T09:53:27;11.93;;;8.60;;
15354;SDS011;7777;52.254;9.618;2024-01-30T09:55:53;13.50;;;8.43;;
15354;SDS011;7777;52.254;9.618;2024-01-30T09:58:18;10.47;;;7.87;;
15354;SDS011;7777;52.254;9.618;2024-01-30T10:00:44;13.17;;;8.17;;
15354;SDS011;7777;52.254;9.618;2024-01-30T10:03:10;11.07;;;8.07;;
15354;SDS011;7777;52.254;9.618;2024-01-30T10:05:36;11.80;;;7.60;;
15354;SDS011;7777;52.254;9.618;2024-01-30T10:08:07;12.03;;;7.90;;
15354;SDS011;7777;52.254;9.618;2024-01-30T10:10:33;13.50;;;8.27;;
15354;SDS011;7777;52.254;9.618;2024-01-30T10:13:00;10.27;;;7.37;;
15354;SDS011;7777;52.254;9.618;2024-01-30T10:15:27;10.70;;;7.37;;
15354;SDS011;7777;52.254;9.618;2024-01-30T10:17:54;11.33;;;7.93;;
15354;SDS011;7777;52.254;9.618;2024-01-30T10:20:19;10.87;;;7.17;;
15354;SDS011;7777;52.254;9.618;2024-01-30T10:22:47;11.37;;;8.50;;
15354;SDS011;7777;52.254;9.618;2024-01-30T10:25:14;12.73;;;8.00;;
15354;SDS011;7777;52.254;9.618;2024-01-30T10:27:41;14.80;;;7.73;;
15354;SDS011;7777;52.254;9.618;2024-01-30T10:30:07;9.63;;;7.13;;
15354;SDS011;7777;52.254;9.618;2024-01-30T10:32:34;14.43;;;8.13;;
15354;SDS011;7777;52.254;9.618;2024-01-30T10:35:00;14.03;;;8.10;;
15354;SDS011;7777;52.254;9.618;2024-01-30T10:37:25;11.37;;;8.13;;
15354;SDS011;7777;52.254;9.618;2024-01-30T10:39:54;10.43;;;7.57;;
15354;SDS011;7777;52.254;9.618;2024-01-30T10:42:26;11.70;;;8.03;;
15354;SDS011;7777;52.254;9.618;2024-01-30T10:47:33;10.27;;;7.90;;
15354;SDS011;7777;52.254;9.618;2024-01-30T10:50:03;14.20;;;8.47;;
15354;SDS011;7777;52.254;9.618;2024-01-30T10:52:31;11.10;;;8.17;;
15354;SDS011;7777;52.254;9.618;2024-01-30T10:54:58;12.30;;;8.53;;
15354;SDS011;7777;52.254;9.618;2024-01-30T10:57:26;11.80;;;8.00;;
15354;SDS011;7777;52.254;9.618;2024-01-30T10:59:55;10.30;;;7.90;;
15354;SDS011;7777;52.254;9.618;2024-01-30T11:02:23;13.73;;;8.70;;
15354;SDS011;7777;52.254;9.618;2024-01-30T11:04:55;12.77;;;7.50;;
15354;SDS011;7777;52.254;9.618;2024-01-30T11:07:24;11.07;;;7.93;;
15354;SDS011;7777;52.254;9.618;2024-01-30T11:12:26;10.80;;;7.30;;
15354;SDS011;7777;52.254;9.618;2024-01-30T11:15:06;13.17;;;8.57;;
15354;SDS011;7777;52.254;9.618;2024-01-30T11:17:40;12.97;;;7.80;;
15354;SDS011;7777;52.254;9.618;2024-01-30T11:22:48;12.27;;;7.60;;
15354;SDS011;7777;52.254;9.618;2024-01-30T11:25:19;10.43;;;7.27;;
15354;SDS011;7777;52.254;9.618;2024-01-30T11:27:46;9.90;;;7.07;;
15354;SDS011;7777;52.254;9.618;2024-01-30T11:30:27;12.70;;;7.73;;
15354;SDS011;7777;52.254;9.618;2024-01-30T11:33:04;11.27;;;7.53;;
15354;SDS011;7777;52.254;9.618;2024-01-30T11:35:37;9.87;;;6.90;;
15354;SDS011;7777;52.254;9.618;2024-01-30T11:38:09;9.80;;;7.07;;
15354;SDS011;7777;52.254;9.618;2024-01-30T11:40:37;10.10;;;6.50;;
15354;SDS011;7777;52.254;9.618;2024-01-30T11:43:05;8.50;;;6.60;;
15354;SDS011;7777;52.254;9.618;2024-01-30T11:45:33;13.83;;;8.07;;
15354;SDS011;7777;52.254;9.618;2024-01-30T11:48:00;10.83;;;7.00;;
15354;SDS011;7777;52.254;9.618;2024-01-30T11:50:28;13.50;;;7.37;;
15354;SDS011;7777;52.254;9.618;2024-01-30T11:52:55;9.47;;;7.00;;
15354;SDS011;7777;52.254;9.618;2024-01-30T11:55:22;10.30;;;7.77;;
15354;SDS011;7777;52.254;9.618;2024-01-30T11:57:50;10.20;;;7.67;;
15354;SDS011;7777;52.254;9.618;2024-01-30T12:00:17;14.57;;;7.17;;
15354;SDS011;7777;52.254;9.618;2024-01-30T12:02:49;9.70;;;7.07;;
15354;SDS011;7777;52.254;9.618;2024-01-30T12:05:20;12.67;;;7.63;;
15354;SDS011;7777;52.254;9.618;2024-01-30T12:07:49;13.17;;;7.47;;
15354;SDS011;7777;52.254;9.618;2024-01-30T12:10:15;12.50;;;7.53;;
15354;SDS011;7777;52.254;9.618;2024-01-30T12:12:45;11.20;;;7.67;;
15354;SDS011;7777;52.254;9.618;2024-01-30T12:15:13;9.10;;;7.07;;
15354;SDS011;7777;52.254;9.618;2024-01-30T12:17:39;11.37;;;7.70;;
15354;SDS011;7777;52.254;9.618;2024-01-30T12:20:06;11.63;;;6.80;;
15354;SDS011;7777;52.254;9.618;2024-01-30T12:22:40;11.63;;;7.57;;
15354;SDS011;7777;52.254;9.618;2024-01-30T12:25:11;10.67;;;7.17;;
15354;SDS011;7777;52.254;9.618;2024-01-30T12:27:39;11.80;;;7.30;;
15354;SDS011;7777;52.254;9.618;2024-01-30T12:30:08;12.13;;;7.57;;
15354;SDS011;7777;52.254;9.618;2024-01-30T12:32:35;12.03;;;7.30;;
15354;SDS011;7777;52.254;9.618;2024-01-30T12:35:02;11.17;;;7.73;;
15354;SDS011;7777;52.254;9.618;2024-01-30T12:37:29;12.33;;;8.00;;
15354;SDS011;7777;52.254;9.618;2024-01-30T12:39:57;10.60;;;7.57;;
15354;SDS011;7777;52.254;9.618;2024-01-30T12:42:23;10.30;;;7.23;;
15354;SDS011;7777;52.254;9.618;2024-01-30T12:44:49;10.77;;;7.93;;
15354;SDS011;7777;52.254;9.618;2024-01-30T12:47:15;13.93;;;8.37;;
15354;SDS011;7777;52.254;9.618;2024-01-30T12:49:42;11.77;;;8.10;;
15354;SDS011;7777;52.254;9.618;2024-01-30T12:52:09;11.97;;;8.10;;
15354;SDS011;7777;52.254;9.618;2024-01-30T12:54:37;12.40;;;8.50;;
15354;SDS011;7777;52.254;9.618;2024-01-30T12:57:03;12.20;;;8.57;;
15354;SDS011;7777;52.254;9.618;2024-01-30T12:59:30;10.83;;;7.93;;
15354;SDS011;7777;52.254;9.618;2024-01-30T13:01:58;13.00;;;8.80;;
15354;SDS011;7777;52.254;9.618;2024-01-30T13:04:25;14.53;;;8.17;;
15354;SDS011;7777;52.254;9.618;2024-01-30T13:06:52;12.07;;;8.37;;
15354;SDS011;7777;52.254;9.618;2024-01-30T13:09:17;14.63;;;8.43;;
15354;SDS011;7777;52.254;9.618;2024-01-30T13:11:43;11.73;;;8.20;;
15354;SDS011;7777;52.254;9.618;2024-01-30T13:14:09;11.23;;;8.00;;
15354;SDS011;7777;52.254;9.618;2024-01-30T13:16:35;11.20;;;8.17;;
15354;SDS011;7777;52.254;9.618;2024-01-30T13:19:01;13.13;;;7.03;;
15354;SDS011;7777;52.254;9.618;2024-01-30T13:21:28;12.37;;;8.20;;
15354;SDS011;7777;52.254;9.618;2024-01-30T13:23:54;10.93;;;8.13;;
15354;SDS011;7777;52.254;9.618;2024-01-30T13:26:20;10.47;;;7.77;;
15354;SDS011;7777;52.254;9.618;2024-01-30T13:28:47;13.40;;;8.13;;
15354;SDS011;7777;52.254;9.618;2024-01-30T13:31:15;11.53;;;8.20;;
15354;SDS011;7777;52.254;9.618;2024-01-30T13:33:41;13.27;;;8.50;;
15354;SDS011;7777;52.254;9.618;2024-01-30T13:36:07;12.97;;;7.90;;
15354;SDS011;7777;52.254;9.618;2024-01-30T13:38:35;12.33;;;7.90;;
15354;SDS011;7777;52.254;9.618;2024-01-30T13:41:01;12.20;;;8.13;;
15354;SDS011;7777;52.254;9.618;2024-01-30T13:43:27;10.80;;;8.00;;
15354;SDS011;7777;52.254;9.618;2024-01-30T13:45:53;13.20;;;8.23;;
15354;SDS011;7777;52.254;9.618;2024-01-30T13:48:19;11.57;;;8.47;;
15354;SDS011;7777;52.254;9.618;2024-01-30T13:50:45;13.00;;;8.00;;
15354;SDS011;7777;52.254;9.618;2024-01-30T13:53:11;9.57;;;7.60;;
15354;SDS011;7777;52.254;9.618;2024-01-30T13:55:37;12.73;;;7.97;;
15354;SDS011;7777;52.254;9.618;2024-01-30T13:58:04;13.17;;;8.27;;
15354;SDS011;7777;52.254;9.618;2024-01-30T14:00:30;12.87;;;8.87;;
15354;SDS011;7777;52.254;9.618;2024-01-30T14:02:56;15.30;;;8.67;;
15354;SDS011;7777;52.254;9.618;2024-01-30T14:05:23;13.73;;;8.20;;
15354;SDS011;7777;52.254;9.618;2024-01-30T14:07:50;11.00;;;7.40;;
15354;SDS011;7777;52.254;9.618;2024-01-30T14:10:17;12.60;;;8.07;;
15354;SDS011;7777;52.254;9.618;2024-01-30T14:12:43;12.43;;;7.33;;
15354;SDS011;7777;52.254;9.618;2024-01-30T14:15:09;13.53;;;7.27;;
15354;SDS011;7777;52.254;9.618;2024-01-30T14:17:37;11.33;;;8.20;;
15354;SDS011;7777;52.254;9.618;2024-01-30T14:20:05;11.63;;;8.47;;
15354;SDS011;7777;52.254;9.618;2024-01-30T14:22:33;10.33;;;8.00;;
15354;SDS011;7777;52.254;9.618;2024-01-30T14:24:59;10.30;;;7.17;;
15354;SDS011;7777;52.254;9.618;2024-01-30T14:27:28;9.63;;;6.73;;
15354;SDS011;7777;52.254;9.618;2024-01-30T14:29:55;12.40;;;7.57;;
15354;SDS011;7777;52.254;9.618;2024-01-30T14:32:21;14.87;;;8.10;;
15354;SDS011;7777;52.254;9.618;2024-01-30T14:34:48;14.10;;;8.10;;
15354;SDS011;7777;52.254;9.618;2024-01-30T14:37:14;12.20;;;7.73;;
15354;SDS011;7777;52.254;9.618;2024-01-30T14:39:40;11.90;;;7.43;;
15354;SDS011;7777;52.254;9.618;2024-01-30T14:42:06;10.97;;;7.07;;
15354;SDS011;7777;52.254;9.618;2024-01-30T14:44:32;10.73;;;7.57;;
15354;SDS011;7777;52.254;9.618;2024-01-30T14:46:58;16.30;;;8.20;;
15354;SDS011;7777;52.254;9.618;2024-01-30T14:49:25;10.97;;;7.47;;
15354;SDS011;7777;52.254;9.618;2024-01-30T14:51:51;10.80;;;7.47;;